sensor_id;sensor_type;location;lat;lon;timestamp;P1;durP1;ratioP1;P2;durP2;ratioP2
17714;SDS011;8977;50.902;4.314;2023-01-28T00:00:54;11.63;;;9.70;;
17714;SDS011;8977;50.902;4.314;2023-01-28T00:03:21;11.30;;;9.17;;
17714;SDS011;8977;50.902;4.314;2023-01-28T00:05:50;11.70;;;10.30;;
17714;SDS011;8977;50.902;4.314;2023-01-28T00:08:18;11.97;;;10.17;;
17714;SDS011;8977;50.902;4.314;2023-01-28T00:10:45;12.30;;;10.27;;
17714;SDS011;8977;50.902;4.314;2023-01-28T00:13:13;12.10;;;10.43;;
17714;SDS011;8977;50.902;4.314;2023-01-28T00:15:40;12.47;;;9.80;;
17714;SDS011;8977;50.902;4.314;2023-01-28T00:18:07;11.37;;;10.13;;
17714;SDS011;8977;50.902;4.314;2023-01-28T00:20:35;11.60;;;10.40;;
17714;SDS011;8977;50.902;4.314;2023-01-28T00:23:03;12.70;;;10.43;;
17714;SDS011;8977;50.902;4.314;2023-01-28T00:25:30;13.10;;;10.43;;
17714;SDS011;8977;50.902;4.314;2023-01-28T00:27:57;12.70;;;10.70;;
17714;SDS011;8977;50.902;4.314;2023-01-28T00:30:24;11.67;;;9.83;;
17714;SDS011;8977;50.902;4.314;2023-01-28T00:32:52;11.73;;;10.23;;
17714;SDS011;8977;50.902;4.314;2023-01-28T00:35:19;12.53;;;10.07;;
17714;SDS011;8977;50.902;4.314;2023-01-28T00:37:46;10.43;;;9.30;;
17714;SDS011;8977;50.902;4.314;2023-01-28T00:40:15;10.40;;;9.30;;
17714;SDS011;8977;50.902;4.314;2023-01-28T00:42:42;10.87;;;9.57;;
17714;SDS011;8977;50.902;4.314;2023-01-28T00:45:09;10.53;;;9.27;;
17714;SDS011;8977;50.902;4.314;2023-01-28T00:47:36;10.67;;;9.30;;
17714;SDS011;8977;50.902;4.314;2023-01-28T00:50:03;9.73;;;8.73;;
17714;SDS011;8977;50.902;4.314;2023-01-28T00:52:31;9.97;;;8.80;;
17714;SDS011;8977;50.902;4.314;2023-01-28T00:54:57;10.93;;;9.27;;
17714;SDS011;8977;50.902;4.314;2023-01-28T00:57:26;10.57;;;9.37;;
17714;SDS011;8977;50.902;4.314;2023-01-28T00:59:53;11.27;;;9.50;;
17714;SDS011;8977;50.902;4.314;2023-01-28T01:02:20;10.80;;;9.37;;
17714;SDS011;8977;50.902;4.314;2023-01-28T01:04:47;10.23;;;9.13;;
17714;SDS011;8977;50.902;4.314;2023-01-28T01:07:25;11.73;;;10.17;;
17714;SDS011;8977;50.902;4.314;2023-01-28T01:09:58;11.93;;;9.77;;
17714;SDS011;8977;50.902;4.314;2023-01-28T01:12:27;10.77;;;9.47;;
17714;SDS011;8977;50.902;4.314;2023-01-28T01:14:54;11.17;;;9.37;;
17714;SDS011;8977;50.902;4.314;2023-01-28T01:17:23;11.80;;;9.93;;
17714;SDS011;8977;50.902;4.314;2023-01-28T01:19:50;13.33;;;10.17;;
17714;SDS011;8977;50.902;4.314;2023-01-28T01:22:18;12.43;;;9.73;;
17714;SDS011;8977;50.902;4.314;2023-01-28T01:24:46;12.20;;;10.03;;
17714;SDS011;8977;50.902;4.314;2023-01-28T01:27:13;10.87;;;9.57;;
17714;SDS011;8977;50.902;4.314;2023-01-28T01:29:42;10.43;;;9.10;;
17714;SDS011;8977;50.902;4.314;2023-01-28T01:32:09;12.50;;;10.13;;
17714;SDS011;8977;50.902;4.314;2023-01-28T01:34:36;11.80;;;9.77;;
17714;SDS011;8977;50.902;4.314;2023-01-28T01:37:04;10.23;;;8.93;;
17714;SDS011;8977;50.902;4.314;2023-01-28T01:39:33;11.30;;;9.53;;
17714;SDS011;8977;50.902;4.314;2023-01-28T01:42:00;10.20;;;9.07;;
17714;SDS011;8977;50.902;4.314;2023-01-28T01:44:51;12.17;;;9.30;;
17714;SDS011;8977;50.902;4.314;2023-01-28T01:47:21;12.17;;;9.30;;
17714;SDS011;8977;50.902;4.314;2023-01-28T01:49:50;11.23;;;9.60;;
17714;SDS011;8977;50.902;4.314;2023-01-28T01:52:19;10.77;;;9.37;;
17714;SDS011;8977;50.902;4.314;2023-01-28T01:54:50;11.40;;;9.57;;
17714;SDS011;8977;50.902;4.314;2023-01-28T01:57:21;11.50;;;8.93;;
17714;SDS011;8977;50.902;4.314;2023-01-28T01:59:54;12.23;;;9.30;;
17714;SDS011;8977;50.902;4.314;2023-01-28T02:02:29;11.60;;;9.67;;
17714;SDS011;8977;50.902;4.314;2023-01-28T02:04:56;11.07;;;9.70;;
17714;SDS011;8977;50.902;4.314;2023-01-28T02:07:24;11.37;;;9.90;;
17714;SDS011;8977;50.902;4.314;2023-01-28T02:09:51;10.97;;;9.73;;
17714;SDS011;8977;50.902;4.314;2023-01-28T02:12:19;11.93;;;9.67;;
17714;SDS011;8977;50.902;4.314;2023-01-28T02:14:50;12.17;;;10.33;;
17714;SDS011;8977;50.902;4.314;2023-01-28T02:17:22;10.37;;;8.90;;
17714;SDS011;8977;50.902;4.314;2023-01-28T02:19:52;10.73;;;9.53;;
17714;SDS011;8977;50.902;4.314;2023-01-28T02:25:31;11.10;;;9.80;;
17714;SDS011;8977;50.902;4.314;2023-01-28T02:28:10;11.23;;;10.00;;
17714;SDS011;8977;50.902;4.314;2023-01-28T02:30:47;11.50;;;9.60;;
17714;SDS011;8977;50.902;4.314;2023-01-28T02:33:18;11.37;;;9.80;;
17714;SDS011;8977;50.902;4.314;2023-01-28T02:35:51;12.53;;;10.00;;
17714;SDS011;8977;50.902;4.314;2023-01-28T02:38:22;11.83;;;10.07;;
17714;SDS011;8977;50.902;4.314;2023-01-28T02:40:55;11.90;;;10.07;;
17714;SDS011;8977;50.902;4.314;2023-01-28T02:43:32;11.57;;;9.90;;
17714;SDS011;8977;50.902;4.314;2023-01-28T02:45:59;12.80;;;10.30;;
17714;SDS011;8977;50.902;4.314;2023-01-28T02:48:54;12.37;;;10.47;;
17714;SDS011;8977;50.902;4.314;2023-01-28T02:51:26;12.33;;;10.37;;
17714;SDS011;8977;50.902;4.314;2023-01-28T02:54:02;12.23;;;10.47;;
17714;SDS011;8977;50.902;4.314;2023-01-28T02:56:37;12.47;;;10.10;;
17714;SDS011;8977;50.902;4.314;2023-01-28T02:59:11;11.90;;;9.87;;
17714;SDS011;8977;50.902;4.314;2023-01-28T03:02:07;13.40;;;10.57;;
17714;SDS011;8977;50.902;4.314;2023-01-28T03:04:40;12.90;;;10.87;;
17714;SDS011;8977;50.902;4.314;2023-01-28T03:07:13;13.03;;;10.37;;
17714;SDS011;8977;50.902;4.314;2023-01-28T03:09:42;13.33;;;10.77;;
17714;SDS011;8977;50.902;4.314;2023-01-28T03:12:11;12.53;;;10.37;;
17714;SDS011;8977;50.902;4.314;2023-01-28T03:15:02;13.70;;;10.67;;
17714;SDS011;8977;50.902;4.314;2023-01-28T03:17:51;14.07;;;11.30;;
17714;SDS011;8977;50.902;4.314;2023-01-28T03:20:43;13.27;;;10.53;;
17714;SDS011;8977;50.902;4.314;2023-01-28T03:23:37;13.50;;;10.33;;
17714;SDS011;8977;50.902;4.314;2023-01-28T03:26:30;14.70;;;11.63;;
17714;SDS011;8977;50.902;4.314;2023-01-28T03:29:24;13.67;;;11.07;;
17714;SDS011;8977;50.902;4.314;2023-01-28T03:32:13;14.93;;;11.43;;
17714;SDS011;8977;50.902;4.314;2023-01-28T03:34:58;15.53;;;11.70;;
17714;SDS011;8977;50.902;4.314;2023-01-28T03:37:43;14.73;;;11.10;;
17714;SDS011;8977;50.902;4.314;2023-01-28T03:40:11;13.47;;;10.77;;
17714;SDS011;8977;50.902;4.314;2023-01-28T03:42:41;13.67;;;11.03;;
17714;SDS011;8977;50.902;4.314;2023-01-28T03:45:08;14.80;;;11.37;;
17714;SDS011;8977;50.902;4.314;2023-01-28T03:47:39;15.57;;;11.50;;
17714;SDS011;8977;50.902;4.314;2023-01-28T03:50:07;14.17;;;11.43;;
17714;SDS011;8977;50.902;4.314;2023-01-28T03:52:35;13.87;;;11.30;;
17714;SDS011;8977;50.902;4.314;2023-01-28T03:55:02;13.30;;;10.80;;
17714;SDS011;8977;50.902;4.314;2023-01-28T03:57:37;13.73;;;10.97;;
17714;SDS011;8977;50.902;4.314;2023-01-28T04:00:05;13.30;;;10.63;;
17714;SDS011;8977;50.902;4.314;2023-01-28T04:02:34;13.37;;;10.67;;
17714;SDS011;8977;50.902;4.314;2023-01-28T04:05:06;15.87;;;11.23;;
17714;SDS011;8977;50.902;4.314;2023-01-28T04:07:39;14.03;;;11.00;;
17714;SDS011;8977;50.902;4.314;2023-01-28T04:10:06;12.60;;;10.70;;
17714;SDS011;8977;50.902;4.314;2023-01-28T04:12:34;12.93;;;10.53;;
17714;SDS011;8977;50.902;4.314;2023-01-28T04:15:03;14.40;;;11.33;;
17714;SDS011;8977;50.902;4.314;2023-01-28T04:17:40;15.85;;;14.25;;
17714;SDS011;8977;50.902;4.314;2023-01-28T04:20:12;13.47;;;11.67;;
17714;SDS011;8977;50.902;4.314;2023-01-28T04:22:39;13.57;;;10.90;;
17714;SDS011;8977;50.902;4.314;2023-01-28T04:25:08;13.10;;;10.60;;
17714;SDS011;8977;50.902;4.314;2023-01-28T04:27:35;13.40;;;10.63;;
17714;SDS011;8977;50.902;4.314;2023-01-28T04:30:02;12.67;;;10.27;;
17714;SDS011;8977;50.902;4.314;2023-01-28T04:32:29;12.73;;;10.47;;
17714;SDS011;8977;50.902;4.314;2023-01-28T04:34:59;12.33;;;10.03;;
17714;SDS011;8977;50.902;4.314;2023-01-28T04:37:27;12.90;;;10.10;;
17714;SDS011;8977;50.902;4.314;2023-01-28T04:39:54;12.57;;;9.83;;
17714;SDS011;8977;50.902;4.314;2023-01-28T04:42:21;10.73;;;9.00;;
17714;SDS011;8977;50.902;4.314;2023-01-28T04:44:48;10.73;;;9.17;;
17714;SDS011;8977;50.902;4.314;2023-01-28T04:47:16;9.67;;;8.33;;
17714;SDS011;8977;50.902;4.314;2023-01-28T04:49:44;11.03;;;9.03;;
17714;SDS011;8977;50.902;4.314;2023-01-28T04:52:10;10.20;;;8.53;;
17714;SDS011;8977;50.902;4.314;2023-01-28T04:54:39;10.30;;;8.23;;
17714;SDS011;8977;50.902;4.314;2023-01-28T04:57:07;8.73;;;7.47;;
17714;SDS011;8977;50.902;4.314;2023-01-28T04:59:34;10.33;;;8.47;;
17714;SDS011;8977;50.902;4.314;2023-01-28T05:02:00;11.70;;;8.33;;
17714;SDS011;8977;50.902;4.314;2023-01-28T05:04:27;9.70;;;7.70;;
17714;SDS011;8977;50.902;4.314;2023-01-28T05:06:54;10.40;;;8.70;;
17714;SDS011;8977;50.902;4.314;2023-01-28T05:09:22;9.40;;;8.17;;
17714;SDS011;8977;50.902;4.314;2023-01-28T05:11:50;9.97;;;8.43;;
17714;SDS011;8977;50.902;4.314;2023-01-28T05:14:17;9.23;;;7.70;;
17714;SDS011;8977;50.902;4.314;2023-01-28T05:16:44;10.63;;;9.03;;
17714;SDS011;8977;50.902;4.314;2023-01-28T05:19:11;9.97;;;8.50;;
17714;SDS011;8977;50.902;4.314;2023-01-28T05:21:38;10.97;;;8.27;;
17714;SDS011;8977;50.902;4.314;2023-01-28T05:24:05;9.60;;;8.23;;
17714;SDS011;8977;50.902;4.314;2023-01-28T05:26:32;8.77;;;7.67;;
17714;SDS011;8977;50.902;4.314;2023-01-28T05:29:00;11.70;;;8.73;;
17714;SDS011;8977;50.902;4.314;2023-01-28T05:31:27;11.03;;;8.83;;
17714;SDS011;8977;50.902;4.314;2023-01-28T05:33:54;9.70;;;8.70;;
17714;SDS011;8977;50.902;4.314;2023-01-28T05:36:21;10.23;;;9.13;;
17714;SDS011;8977;50.902;4.314;2023-01-28T05:38:48;10.50;;;8.03;;
17714;SDS011;8977;50.902;4.314;2023-01-28T05:41:15;9.63;;;8.43;;
17714;SDS011;8977;50.902;4.314;2023-01-28T05:43:42;9.30;;;7.93;;
17714;SDS011;8977;50.902;4.314;2023-01-28T05:46:10;10.30;;;7.93;;
17714;SDS011;8977;50.902;4.314;2023-01-28T05:48:37;9.23;;;8.30;;
17714;SDS011;8977;50.902;4.314;2023-01-28T05:51:04;9.30;;;8.00;;
17714;SDS011;8977;50.902;4.314;2023-01-28T05:53:31;8.63;;;7.80;;
17714;SDS011;8977;50.902;4.314;2023-01-28T05:55:58;9.30;;;8.07;;
17714;SDS011;8977;50.902;4.314;2023-01-28T05:58:25;9.23;;;8.27;;
17714;SDS011;8977;50.902;4.314;2023-01-28T06:00:55;8.10;;;7.30;;
17714;SDS011;8977;50.902;4.314;2023-01-28T06:03:23;8.53;;;7.60;;
17714;SDS011;8977;50.902;4.314;2023-01-28T06:05:50;7.93;;;7.10;;
17714;SDS011;8977;50.902;4.314;2023-01-28T06:08:17;8.10;;;7.30;;
17714;SDS011;8977;50.902;4.314;2023-01-28T06:10:45;9.00;;;7.90;;
17714;SDS011;8977;50.902;4.314;2023-01-28T06:13:12;10.87;;;7.83;;
17714;SDS011;8977;50.902;4.314;2023-01-28T06:15:39;9.37;;;7.63;;
17714;SDS011;8977;50.902;4.314;2023-01-28T06:18:06;9.70;;;7.40;;
17714;SDS011;8977;50.902;4.314;2023-01-28T06:20:34;9.80;;;8.00;;
17714;SDS011;8977;50.902;4.314;2023-01-28T06:23:00;8.13;;;7.33;;
17714;SDS011;8977;50.902;4.314;2023-01-28T06:25:27;8.03;;;7.23;;
17714;SDS011;8977;50.902;4.314;2023-01-28T06:27:54;9.20;;;7.47;;
17714;SDS011;8977;50.902;4.314;2023-01-28T06:30:21;9.00;;;8.10;;
17714;SDS011;8977;50.902;4.314;2023-01-28T06:32:52;9.67;;;8.43;;
17714;SDS011;8977;50.902;4.314;2023-01-28T06:35:19;9.70;;;7.83;;
17714;SDS011;8977;50.902;4.314;2023-01-28T06:37:48;10.50;;;8.77;;
17714;SDS011;8977;50.902;4.314;2023-01-28T06:40:16;10.27;;;7.57;;
17714;SDS011;8977;50.902;4.314;2023-01-28T06:42:43;9.77;;;7.13;;
17714;SDS011;8977;50.902;4.314;2023-01-28T06:45:10;8.87;;;7.90;;
17714;SDS011;8977;50.902;4.314;2023-01-28T06:47:37;9.17;;;8.17;;
17714;SDS011;8977;50.902;4.314;2023-01-28T06:50:04;14.00;;;8.23;;
17714;SDS011;8977;50.902;4.314;2023-01-28T06:52:32;9.30;;;7.47;;
17714;SDS011;8977;50.902;4.314;2023-01-28T06:55:00;9.57;;;8.27;;
17714;SDS011;8977;50.902;4.314;2023-01-28T06:57:27;11.57;;;7.53;;
17714;SDS011;8977;50.902;4.314;2023-01-28T06:59:54;8.83;;;7.93;;
17714;SDS011;8977;50.902;4.314;2023-01-28T07:02:20;9.73;;;8.37;;
17714;SDS011;8977;50.902;4.314;2023-01-28T07:04:47;9.10;;;8.00;;
17714;SDS011;8977;50.902;4.314;2023-01-28T07:07:14;10.17;;;8.37;;
17714;SDS011;8977;50.902;4.314;2023-01-28T07:09:43;10.37;;;8.90;;
17714;SDS011;8977;50.902;4.314;2023-01-28T07:12:11;10.30;;;8.20;;
17714;SDS011;8977;50.902;4.314;2023-01-28T07:14:38;10.03;;;7.70;;
17714;SDS011;8977;50.902;4.314;2023-01-28T07:17:04;11.47;;;8.17;;
17714;SDS011;8977;50.902;4.314;2023-01-28T07:19:31;11.37;;;9.40;;
17714;SDS011;8977;50.902;4.314;2023-01-28T07:21:58;12.57;;;9.83;;
17714;SDS011;8977;50.902;4.314;2023-01-28T07:24:27;17.97;;;11.80;;
17714;SDS011;8977;50.902;4.314;2023-01-28T07:26:54;18.90;;;12.77;;
17714;SDS011;8977;50.902;4.314;2023-01-28T07:29:22;14.37;;;11.27;;
17714;SDS011;8977;50.902;4.314;2023-01-28T07:31:49;12.43;;;10.10;;
17714;SDS011;8977;50.902;4.314;2023-01-28T07:34:15;13.20;;;8.37;;
17714;SDS011;8977;50.902;4.314;2023-01-28T07:36:42;11.90;;;9.43;;
17714;SDS011;8977;50.902;4.314;2023-01-28T07:39:09;10.37;;;8.83;;
17714;SDS011;8977;50.902;4.314;2023-01-28T07:41:36;11.80;;;9.63;;
17714;SDS011;8977;50.902;4.314;2023-01-28T07:44:03;13.63;;;10.57;;
17714;SDS011;8977;50.902;4.314;2023-01-28T07:46:31;12.87;;;10.00;;
17714;SDS011;8977;50.902;4.314;2023-01-28T07:48:58;11.93;;;9.77;;
17714;SDS011;8977;50.902;4.314;2023-01-28T07:51:25;12.33;;;9.37;;
17714;SDS011;8977;50.902;4.314;2023-01-28T07:53:52;13.53;;;10.17;;
17714;SDS011;8977;50.902;4.314;2023-01-28T07:56:19;14.80;;;10.67;;
17714;SDS011;8977;50.902;4.314;2023-01-28T07:58:48;13.90;;;10.03;;
17714;SDS011;8977;50.902;4.314;2023-01-28T08:01:16;11.67;;;9.27;;
17714;SDS011;8977;50.902;4.314;2023-01-28T08:03:45;13.50;;;10.17;;
17714;SDS011;8977;50.902;4.314;2023-01-28T08:06:11;16.47;;;10.70;;
17714;SDS011;8977;50.902;4.314;2023-01-28T08:08:38;14.67;;;10.63;;
17714;SDS011;8977;50.902;4.314;2023-01-28T08:11:06;16.83;;;11.70;;
17714;SDS011;8977;50.902;4.314;2023-01-28T08:13:33;14.50;;;10.87;;
17714;SDS011;8977;50.902;4.314;2023-01-28T08:16:00;13.17;;;10.43;;
17714;SDS011;8977;50.902;4.314;2023-01-28T08:18:27;13.67;;;10.07;;
17714;SDS011;8977;50.902;4.314;2023-01-28T08:20:55;11.03;;;9.07;;
17714;SDS011;8977;50.902;4.314;2023-01-28T08:23:23;11.53;;;9.07;;
17714;SDS011;8977;50.902;4.314;2023-01-28T08:25:50;11.83;;;8.97;;
17714;SDS011;8977;50.902;4.314;2023-01-28T08:28:18;11.67;;;9.80;;
17714;SDS011;8977;50.902;4.314;2023-01-28T08:30:47;11.27;;;9.60;;
17714;SDS011;8977;50.902;4.314;2023-01-28T08:33:15;11.73;;;9.50;;
17714;SDS011;8977;50.902;4.314;2023-01-28T08:35:43;13.73;;;9.90;;
17714;SDS011;8977;50.902;4.314;2023-01-28T08:38:12;12.50;;;9.83;;
17714;SDS011;8977;50.902;4.314;2023-01-28T08:40:41;13.38;;;11.90;;
17714;SDS011;8977;50.902;4.314;2023-01-28T08:43:08;14.77;;;10.67;;
17714;SDS011;8977;50.902;4.314;2023-01-28T08:45:35;13.27;;;10.20;;
17714;SDS011;8977;50.902;4.314;2023-01-28T08:48:02;13.57;;;10.33;;
17714;SDS011;8977;50.902;4.314;2023-01-28T08:50:31;10.50;;;9.20;;
17714;SDS011;8977;50.902;4.314;2023-01-28T08:53:00;12.83;;;9.60;;
17714;SDS011;8977;50.902;4.314;2023-01-28T08:55:30;14.20;;;9.83;;
17714;SDS011;8977;50.902;4.314;2023-01-28T08:58:00;13.43;;;9.63;;
17714;SDS011;8977;50.902;4.314;2023-01-28T09:00:28;15.63;;;10.80;;
17714;SDS011;8977;50.902;4.314;2023-01-28T09:02:55;12.67;;;10.17;;
17714;SDS011;8977;50.902;4.314;2023-01-28T09:05:22;13.47;;;11.23;;
17714;SDS011;8977;50.902;4.314;2023-01-28T09:07:48;13.80;;;10.93;;
17714;SDS011;8977;50.902;4.314;2023-01-28T09:10:16;14.37;;;11.17;;
17714;SDS011;8977;50.902;4.314;2023-01-28T09:12:45;14.47;;;11.67;;
17714;SDS011;8977;50.902;4.314;2023-01-28T09:15:15;14.27;;;11.40;;
17714;SDS011;8977;50.902;4.314;2023-01-28T09:17:42;15.00;;;11.40;;
17714;SDS011;8977;50.902;4.314;2023-01-28T09:20:10;13.77;;;11.23;;
17714;SDS011;8977;50.902;4.314;2023-01-28T09:22:37;15.80;;;12.40;;
17714;SDS011;8977;50.902;4.314;2023-01-28T09:25:05;14.50;;;11.23;;
17714;SDS011;8977;50.902;4.314;2023-01-28T09:27:35;15.60;;;11.63;;
17714;SDS011;8977;50.902;4.314;2023-01-28T09:30:03;16.07;;;12.37;;
17714;SDS011;8977;50.902;4.314;2023-01-28T09:32:31;17.23;;;13.10;;
17714;SDS011;8977;50.902;4.314;2023-01-28T09:34:59;18.13;;;13.77;;
17714;SDS011;8977;50.902;4.314;2023-01-28T09:37:26;15.63;;;12.47;;
17714;SDS011;8977;50.902;4.314;2023-01-28T09:39:55;17.00;;;14.17;;
17714;SDS011;8977;50.902;4.314;2023-01-28T09:42:27;19.13;;;14.40;;
17714;SDS011;8977;50.902;4.314;2023-01-28T09:45:15;17.80;;;14.07;;
17714;SDS011;8977;50.902;4.314;2023-01-28T09:47:51;17.53;;;13.03;;
17714;SDS011;8977;50.902;4.314;2023-01-28T09:50:26;18.60;;;13.57;;
17714;SDS011;8977;50.902;4.314;2023-01-28T09:52:59;18.97;;;14.33;;
17714;SDS011;8977;50.902;4.314;2023-01-28T09:55:30;17.53;;;14.13;;
17714;SDS011;8977;50.902;4.314;2023-01-28T09:58:00;18.47;;;13.80;;
17714;SDS011;8977;50.902;4.314;2023-01-28T10:00:31;17.50;;;12.73;;
17714;SDS011;8977;50.902;4.314;2023-01-28T10:03:18;16.07;;;12.87;;
17714;SDS011;8977;50.902;4.314;2023-01-28T10:05:55;17.57;;;12.70;;
17714;SDS011;8977;50.902;4.314;2023-01-28T10:08:33;16.60;;;12.47;;
17714;SDS011;8977;50.902;4.314;2023-01-28T10:11:13;14.80;;;11.80;;
17714;SDS011;8977;50.902;4.314;2023-01-28T10:13:46;17.83;;;12.70;;
17714;SDS011;8977;50.902;4.314;2023-01-28T10:16:25;17.93;;;13.97;;
17714;SDS011;8977;50.902;4.314;2023-01-28T10:18:57;17.47;;;12.90;;
17714;SDS011;8977;50.902;4.314;2023-01-28T10:21:30;19.43;;;13.17;;
17714;SDS011;8977;50.902;4.314;2023-01-28T10:24:02;16.53;;;13.33;;
17714;SDS011;8977;50.902;4.314;2023-01-28T10:26:34;16.00;;;12.43;;
17714;SDS011;8977;50.902;4.314;2023-01-28T10:29:08;17.60;;;13.23;;
17714;SDS011;8977;50.902;4.314;2023-01-28T10:31:42;15.70;;;12.47;;
17714;SDS011;8977;50.902;4.314;2023-01-28T10:34:16;17.83;;;13.63;;
17714;SDS011;8977;50.902;4.314;2023-01-28T10:36:42;18.27;;;13.63;;
17714;SDS011;8977;50.902;4.314;2023-01-28T10:39:10;17.30;;;13.63;;
17714;SDS011;8977;50.902;4.314;2023-01-28T10:41:40;17.03;;;13.40;;
17714;SDS011;8977;50.902;4.314;2023-01-28T10:44:11;15.67;;;12.10;;
17714;SDS011;8977;50.902;4.314;2023-01-28T10:46:43;15.63;;;12.37;;
17714;SDS011;8977;50.902;4.314;2023-01-28T10:49:13;15.97;;;12.93;;
17714;SDS011;8977;50.902;4.314;2023-01-28T10:51:43;16.33;;;12.33;;
17714;SDS011;8977;50.902;4.314;2023-01-28T10:54:17;15.00;;;11.67;;
17714;SDS011;8977;50.902;4.314;2023-01-28T10:56:46;15.37;;;11.73;;
17714;SDS011;8977;50.902;4.314;2023-01-28T10:59:19;15.27;;;11.80;;
17714;SDS011;8977;50.902;4.314;2023-01-28T11:01:49;15.93;;;12.13;;
17714;SDS011;8977;50.902;4.314;2023-01-28T11:04:21;15.90;;;12.10;;
17714;SDS011;8977;50.902;4.314;2023-01-28T11:06:53;14.33;;;11.60;;
17714;SDS011;8977;50.902;4.314;2023-01-28T11:09:25;13.30;;;10.60;;
17714;SDS011;8977;50.902;4.314;2023-01-28T11:11:53;13.03;;;10.53;;
17714;SDS011;8977;50.902;4.314;2023-01-28T11:14:21;14.40;;;10.40;;
17714;SDS011;8977;50.902;4.314;2023-01-28T11:16:52;12.90;;;10.23;;
17714;SDS011;8977;50.902;4.314;2023-01-28T11:19:22;12.77;;;10.33;;
17714;SDS011;8977;50.902;4.314;2023-01-28T11:21:54;14.33;;;11.20;;
17714;SDS011;8977;50.902;4.314;2023-01-28T11:24:26;11.97;;;9.67;;
17714;SDS011;8977;50.902;4.314;2023-01-28T11:26:56;14.63;;;10.93;;
17714;SDS011;8977;50.902;4.314;2023-01-28T11:29:26;14.00;;;10.63;;
17714;SDS011;8977;50.902;4.314;2023-01-28T11:31:57;13.50;;;10.50;;
17714;SDS011;8977;50.902;4.314;2023-01-28T11:34:26;14.47;;;10.43;;
17714;SDS011;8977;50.902;4.314;2023-01-28T11:37:00;15.00;;;10.13;;
17714;SDS011;8977;50.902;4.314;2023-01-28T11:39:28;16.20;;;10.27;;
17714;SDS011;8977;50.902;4.314;2023-01-28T11:42:10;14.27;;;10.50;;
17714;SDS011;8977;50.902;4.314;2023-01-28T11:44:39;14.00;;;9.90;;
17714;SDS011;8977;50.902;4.314;2023-01-28T11:47:14;14.10;;;10.43;;
17714;SDS011;8977;50.902;4.314;2023-01-28T11:49:59;13.43;;;9.87;;
17714;SDS011;8977;50.902;4.314;2023-01-28T11:52:39;13.97;;;10.70;;
17714;SDS011;8977;50.902;4.314;2023-01-28T11:55:20;13.60;;;10.53;;
17714;SDS011;8977;50.902;4.314;2023-01-28T11:57:58;14.00;;;10.27;;
17714;SDS011;8977;50.902;4.314;2023-01-28T12:00:36;13.87;;;9.87;;
17714;SDS011;8977;50.902;4.314;2023-01-28T12:03:22;12.80;;;10.17;;
17714;SDS011;8977;50.902;4.314;2023-01-28T12:06:04;12.57;;;9.80;;
17714;SDS011;8977;50.902;4.314;2023-01-28T12:08:55;15.33;;;11.30;;
17714;SDS011;8977;50.902;4.314;2023-01-28T12:11:29;14.43;;;10.60;;
17714;SDS011;8977;50.902;4.314;2023-01-28T12:14:23;13.00;;;9.97;;
17714;SDS011;8977;50.902;4.314;2023-01-28T12:17:02;13.57;;;10.80;;
17714;SDS011;8977;50.902;4.314;2023-01-28T12:19:43;13.10;;;10.53;;
17714;SDS011;8977;50.902;4.314;2023-01-28T12:22:30;13.00;;;9.80;;
17714;SDS011;8977;50.902;4.314;2023-01-28T12:25:27;13.70;;;10.10;;
17714;SDS011;8977;50.902;4.314;2023-01-28T12:28:07;14.07;;;10.13;;
17714;SDS011;8977;50.902;4.314;2023-01-28T12:30:48;13.73;;;10.27;;
17714;SDS011;8977;50.902;4.314;2023-01-28T12:33:29;14.43;;;9.87;;
17714;SDS011;8977;50.902;4.314;2023-01-28T12:36:15;13.63;;;9.80;;
17714;SDS011;8977;50.902;4.314;2023-01-28T12:38:57;10.53;;;9.03;;
17714;SDS011;8977;50.902;4.314;2023-01-28T12:41:33;10.27;;;8.77;;
17714;SDS011;8977;50.902;4.314;2023-01-28T12:44:07;13.13;;;9.80;;
17714;SDS011;8977;50.902;4.314;2023-01-28T12:46:38;13.10;;;9.83;;
17714;SDS011;8977;50.902;4.314;2023-01-28T12:49:10;13.77;;;10.40;;
17714;SDS011;8977;50.902;4.314;2023-01-28T12:51:50;14.13;;;10.20;;
17714;SDS011;8977;50.902;4.314;2023-01-28T12:54:24;13.73;;;10.57;;
17714;SDS011;8977;50.902;4.314;2023-01-28T12:56:58;13.83;;;9.93;;
17714;SDS011;8977;50.902;4.314;2023-01-28T12:59:27;16.60;;;10.63;;
17714;SDS011;8977;50.902;4.314;2023-01-28T13:02:00;14.43;;;10.80;;
17714;SDS011;8977;50.902;4.314;2023-01-28T13:04:38;13.33;;;10.33;;
17714;SDS011;8977;50.902;4.314;2023-01-28T13:07:11;12.63;;;9.40;;
17714;SDS011;8977;50.902;4.314;2023-01-28T13:09:44;12.27;;;9.77;;
17714;SDS011;8977;50.902;4.314;2023-01-28T13:12:17;12.80;;;9.70;;
17714;SDS011;8977;50.902;4.314;2023-01-28T13:14:46;12.93;;;9.50;;
17714;SDS011;8977;50.902;4.314;2023-01-28T13:17:23;12.10;;;9.37;;
17714;SDS011;8977;50.902;4.314;2023-01-28T13:19:51;11.97;;;9.47;;
17714;SDS011;8977;50.902;4.314;2023-01-28T13:22:26;12.70;;;10.40;;
17714;SDS011;8977;50.902;4.314;2023-01-28T13:25:10;14.67;;;9.80;;
17714;SDS011;8977;50.902;4.314;2023-01-28T13:27:52;12.63;;;10.00;;
17714;SDS011;8977;50.902;4.314;2023-01-28T13:30:22;12.23;;;9.60;;
17714;SDS011;8977;50.902;4.314;2023-01-28T13:32:54;12.63;;;9.57;;
17714;SDS011;8977;50.902;4.314;2023-01-28T13:35:27;11.67;;;9.30;;
17714;SDS011;8977;50.902;4.314;2023-01-28T13:37:58;12.27;;;9.63;;
17714;SDS011;8977;50.902;4.314;2023-01-28T13:40:31;13.37;;;10.07;;
17714;SDS011;8977;50.902;4.314;2023-01-28T13:43:00;10.67;;;8.83;;
17714;SDS011;8977;50.902;4.314;2023-01-28T13:45:28;14.50;;;10.27;;
17714;SDS011;8977;50.902;4.314;2023-01-28T13:47:58;12.33;;;9.37;;
17714;SDS011;8977;50.902;4.314;2023-01-28T13:50:32;13.90;;;10.47;;
17714;SDS011;8977;50.902;4.314;2023-01-28T13:53:06;12.00;;;9.60;;
17714;SDS011;8977;50.902;4.314;2023-01-28T13:55:45;13.23;;;10.10;;
17714;SDS011;8977;50.902;4.314;2023-01-28T14:01:23;13.27;;;9.10;;
17714;SDS011;8977;50.902;4.314;2023-01-28T14:04:39;13.50;;;9.43;;
17714;SDS011;8977;50.902;4.314;2023-01-28T14:07:51;10.90;;;9.40;;
17714;SDS011;8977;50.902;4.314;2023-01-28T14:10:45;11.90;;;8.67;;
17714;SDS011;8977;50.902;4.314;2023-01-28T14:13:35;13.80;;;9.77;;
17714;SDS011;8977;50.902;4.314;2023-01-28T14:16:29;14.40;;;10.17;;
17714;SDS011;8977;50.902;4.314;2023-01-28T14:19:03;13.27;;;10.10;;
17714;SDS011;8977;50.902;4.314;2023-01-28T14:21:32;13.43;;;10.63;;
17714;SDS011;8977;50.902;4.314;2023-01-28T14:24:00;14.67;;;10.07;;
17714;SDS011;8977;50.902;4.314;2023-01-28T14:26:33;12.33;;;9.03;;
17714;SDS011;8977;50.902;4.314;2023-01-28T14:29:11;12.57;;;9.73;;
17714;SDS011;8977;50.902;4.314;2023-01-28T14:31:46;13.80;;;10.27;;
17714;SDS011;8977;50.902;4.314;2023-01-28T14:34:16;13.00;;;9.10;;
17714;SDS011;8977;50.902;4.314;2023-01-28T14:36:48;13.27;;;10.00;;
17714;SDS011;8977;50.902;4.314;2023-01-28T14:39:18;13.87;;;9.97;;
17714;SDS011;8977;50.902;4.314;2023-01-28T14:41:49;13.73;;;10.27;;
17714;SDS011;8977;50.902;4.314;2023-01-28T14:44:26;14.07;;;10.57;;
17714;SDS011;8977;50.902;4.314;2023-01-28T14:47:01;12.80;;;9.60;;
17714;SDS011;8977;50.902;4.314;2023-01-28T14:49:42;12.27;;;9.80;;
17714;SDS011;8977;50.902;4.314;2023-01-28T14:52:23;12.63;;;9.13;;
17714;SDS011;8977;50.902;4.314;2023-01-28T14:55:16;14.10;;;10.17;;
17714;SDS011;8977;50.902;4.314;2023-01-28T14:57:54;14.10;;;10.47;;
17714;SDS011;8977;50.902;4.314;2023-01-28T15:00:24;12.60;;;9.90;;
17714;SDS011;8977;50.902;4.314;2023-01-28T15:02:52;11.90;;;9.90;;
17714;SDS011;8977;50.902;4.314;2023-01-28T15:05:19;13.40;;;9.80;;
17714;SDS011;8977;50.902;4.314;2023-01-28T15:07:48;13.53;;;9.83;;
17714;SDS011;8977;50.902;4.314;2023-01-28T15:10:17;13.47;;;10.00;;
17714;SDS011;8977;50.902;4.314;2023-01-28T15:12:47;13.27;;;10.67;;
17714;SDS011;8977;50.902;4.314;2023-01-28T15:15:20;15.27;;;10.63;;